createdAt,value
2023-03-31T00:02:56.447Z,100.00
2023-03-31T00:08:05.290Z,100.00
2023-03-31T00:13:10.547Z,100.00
2023-03-31T00:18:16.877Z,100.00
2023-03-31T00:23:28.235Z,100.00
2023-03-31T00:28:33.548Z,100.00
2023-03-31T00:33:39.138Z,100.00
2023-03-31T00:38:47.687Z,100.00
2023-03-31T00:44:05.321Z,100.00
2023-03-31T00:49:27.634Z,100.00
2023-03-31T00:54:34.685Z,100.00
2023-03-31T00:59:41.726Z,100.00
2023-03-31T01:04:55.700Z,100.00
2023-03-31T01:10:07.631Z,100.00
2023-03-31T01:15:13.391Z,100.00
2023-03-31T01:20:32.592Z,100.00
2023-03-31T01:26:21.969Z,100.00
2023-03-31T01:31:58.422Z,100.00
2023-03-31T01:37:34.944Z,100.00
2023-03-31T01:42:45.832Z,100.00
2023-03-31T01:47:59.721Z,100.00
2023-03-31T01:53:15.605Z,100.00
2023-03-31T01:58:34.475Z,100.00
2023-03-31T02:03:43.465Z,100.00
2023-03-31T02:08:54.236Z,100.00
2023-03-31T02:14:05.040Z,100.00
2023-03-31T02:19:14.415Z,100.00
2023-03-31T02:24:21.394Z,100.00
2023-03-31T02:29:27.469Z,100.00
2023-03-31T02:34:40.103Z,100.00
2023-03-31T02:39:52.448Z,100.00
2023-03-31T02:45:04.624Z,100.00
2023-03-31T02:50:10.693Z,100.00
2023-03-31T02:55:32.949Z,100.00
2023-03-31T03:00:56.707Z,100.00
2023-03-31T03:06:14.123Z,100.00
2023-03-31T03:11:31.204Z,100.00
2023-03-31T03:16:43.805Z,100.00
2023-03-31T03:21:48.871Z,100.00
2023-03-31T03:26:53.261Z,100.00
2023-03-31T03:32:01.415Z,100.00
2023-03-31T03:37:07.233Z,100.00
2023-03-31T03:42:11.318Z,100.00
2023-03-31T03:47:23.341Z,100.00
2023-03-31T03:52:35.458Z,100.00
2023-03-31T03:57:39.753Z,100.00
2023-03-31T04:02:48.775Z,100.00
2023-03-31T04:07:54.608Z,100.00
2023-03-31T04:13:00.460Z,100.00
2023-03-31T04:18:12.372Z,100.00
2023-03-31T04:23:18.949Z,100.00
2023-03-31T04:28:23.261Z,100.00
2023-03-31T04:33:51.094Z,100.00
2023-03-31T04:38:56.384Z,100.00
2023-03-31T04:44:02.409Z,100.00
2023-03-31T04:49:09.080Z,100.00
2023-03-31T04:54:13.168Z,100.00
2023-03-31T04:59:50.523Z,100.00
2023-03-31T05:04:56.524Z,100.00
2023-03-31T05:10:00.628Z,100.00
2023-03-31T05:15:04.547Z,100.00
2023-03-31T05:20:23.392Z,100.00
2023-03-31T05:25:32.847Z,100.00
2023-03-31T05:30:36.416Z,100.00
2023-03-31T05:35:57.643Z,100.00
2023-03-31T05:41:48.296Z,100.00
2023-03-31T05:46:52.309Z,100.00
2023-03-31T05:52:02.882Z,100.00
2023-03-31T05:57:08.256Z,100.00
2023-03-31T06:02:15.754Z,100.00
2023-03-31T06:07:31.679Z,100.00
2023-03-31T06:12:38.439Z,100.00
2023-03-31T06:17:48.191Z,100.00
2023-03-31T06:22:56.727Z,100.00
2023-03-31T06:28:10.909Z,100.00
2023-03-31T06:33:24.026Z,100.00
2023-03-31T06:38:32.482Z,100.00
2023-03-31T06:43:40.678Z,100.00
2023-03-31T06:48:44.676Z,100.00
2023-03-31T06:54:03.674Z,100.00
2023-03-31T06:59:13.362Z,100.00
2023-03-31T07:04:25.832Z,100.00
2023-03-31T07:09:34.132Z,100.00
2023-03-31T07:14:43.588Z,100.00
2023-03-31T07:19:48.420Z,100.00
2023-03-31T07:24:59.570Z,100.00
2023-03-31T07:30:04.463Z,99.92
2023-03-31T07:35:12.485Z,99.66
2023-03-31T07:40:22.725Z,99.22
2023-03-31T07:45:30.965Z,98.41
2023-03-31T07:50:39.627Z,97.29
2023-03-31T07:55:54.050Z,96.40
2023-03-31T08:01:01.621Z,96.02
2023-03-31T08:06:07.042Z,95.00
2023-03-31T08:11:17.954Z,94.38
2023-03-31T08:16:27.050Z,93.02
2023-03-31T08:21:31.598Z,92.26
2023-03-31T08:26:45.535Z,90.60
2023-03-31T08:31:50.058Z,88.64
2023-03-31T08:36:57.983Z,87.50
2023-03-31T08:42:16.067Z,87.05
2023-03-31T08:47:26.234Z,89.34
2023-03-31T08:52:38.246Z,92.39
2023-03-31T08:57:53.090Z,93.54
2023-03-31T09:03:07.196Z,94.44
2023-03-31T09:08:35.665Z,96.71
2023-03-31T09:14:14.692Z,97.42
2023-03-31T09:19:35.070Z,97.96
2023-03-31T09:24:49.576Z,98.47
2023-03-31T09:29:57.761Z,98.94
2023-03-31T09:35:19.317Z,99.47
2023-03-31T09:40:28.251Z,99.19
2023-03-31T09:45:35.076Z,98.87
2023-03-31T09:50:47.935Z,99.94
2023-03-31T09:55:57.980Z,100.00
2023-03-31T10:01:14.997Z,100.00
2023-03-31T10:06:40.603Z,100.00
2023-03-31T10:11:58.329Z,100.00
2023-03-31T10:17:13.149Z,100.00
2023-03-31T10:22:32.554Z,100.00
2023-03-31T10:27:43.016Z,100.00
2023-03-31T10:32:51.240Z,100.00
2023-03-31T10:38:09.584Z,100.00
2023-03-31T10:43:28.812Z,100.00
2023-03-31T10:48:35.193Z,100.00
2023-03-31T10:53:48.092Z,100.00
2023-03-31T10:59:18.039Z,100.00
2023-03-31T11:04:55.169Z,100.00
2023-03-31T11:10:32.904Z,100.00
2023-03-31T11:15:46.910Z,100.00
2023-03-31T11:21:06.136Z,100.00
2023-03-31T11:26:22.155Z,100.00
2023-03-31T11:31:37.428Z,100.00
2023-03-31T11:37:00.907Z,100.00
2023-03-31T11:42:16.158Z,100.00
2023-03-31T11:47:30.836Z,100.00
2023-03-31T11:52:43.095Z,100.00
2023-03-31T11:57:59.888Z,100.00
2023-03-31T12:03:39.262Z,100.00
2023-03-31T12:08:56.849Z,100.00
2023-03-31T12:14:19.104Z,100.00
2023-03-31T12:19:30.573Z,100.00
2023-03-31T12:24:40.334Z,100.00
2023-03-31T12:29:57.338Z,100.00
2023-03-31T12:35:13.684Z,100.00
2023-03-31T12:40:32.954Z,100.00
2023-03-31T12:45:50.973Z,100.00
2023-03-31T12:51:19.743Z,100.00
2023-03-31T12:56:24.700Z,100.00
2023-03-31T13:01:39.221Z,100.00
2023-03-31T13:07:27.200Z,100.00
2023-03-31T13:12:36.017Z,100.00
2023-03-31T13:17:44.034Z,100.00
2023-03-31T13:22:53.976Z,100.00
2023-03-31T13:27:59.270Z,100.00
2023-03-31T13:33:18.302Z,100.00
2023-03-31T13:38:47.617Z,100.00
2023-03-31T13:44:29.567Z,100.00
2023-03-31T13:50:05.903Z,97.57
2023-03-31T13:55:43.477Z,99.58
2023-03-31T14:01:08.020Z,98.46
2023-03-31T14:06:21.009Z,95.33
2023-03-31T14:16:53.689Z,93.93
2023-03-31T14:22:09.655Z,93.52
2023-03-31T14:27:29.002Z,93.69
2023-03-31T14:32:54.028Z,96.53
2023-03-31T14:37:58.338Z,97.64
2023-03-31T14:43:08.260Z,96.56
2023-03-31T14:48:15.410Z,97.91
2023-03-31T14:53:22.195Z,99.29
2023-03-31T14:58:29.666Z,100.00
2023-03-31T15:03:37.804Z,100.00
2023-03-31T15:08:42.367Z,100.00
2023-03-31T15:14:01.194Z,100.00
2023-03-31T15:19:17.995Z,100.00
2023-03-31T15:24:25.849Z,100.00
2023-03-31T15:29:39.581Z,100.00
2023-03-31T15:34:48.174Z,100.00
2023-03-31T15:39:55.708Z,100.00
2023-03-31T15:45:41.156Z,100.00
2023-03-31T15:50:47.375Z,100.00
2023-03-31T15:55:57.289Z,100.00
2023-03-31T16:01:06.576Z,100.00
2023-03-31T16:06:30.852Z,100.00
2023-03-31T16:11:40.940Z,100.00
2023-03-31T16:17:04.917Z,100.00
2023-03-31T16:22:19.920Z,100.00
2023-03-31T16:27:38.776Z,100.00
2023-03-31T16:33:02.341Z,100.00
2023-03-31T16:38:24.944Z,100.00
2023-03-31T16:43:36.235Z,100.00
2023-03-31T16:49:12.059Z,100.00
2023-03-31T16:54:20.430Z,100.00
2023-03-31T16:59:39.574Z,100.00
2023-03-31T17:04:45.284Z,100.00
2023-03-31T17:09:51.692Z,100.00
2023-03-31T17:15:06.347Z,100.00
2023-03-31T17:20:16.384Z,100.00
2023-03-31T17:25:36.360Z,100.00
2023-03-31T17:30:50.614Z,100.00
2023-03-31T17:36:01.818Z,100.00
2023-03-31T17:41:12.058Z,100.00
2023-03-31T17:46:23.240Z,100.00
2023-03-31T17:51:35.618Z,100.00
2023-03-31T17:56:59.381Z,100.00
2023-03-31T18:02:11.338Z,100.00
2023-03-31T18:07:28.839Z,100.00
2023-03-31T18:12:34.764Z,100.00
2023-03-31T18:17:51.257Z,100.00
2023-03-31T18:22:57.096Z,100.00
2023-03-31T18:28:36.401Z,100.00
2023-03-31T18:33:46.518Z,100.00
2023-03-31T18:38:59.072Z,100.00
2023-03-31T18:44:05.655Z,100.00
2023-03-31T18:49:12.620Z,100.00
2023-03-31T18:54:34.311Z,100.00
2023-03-31T18:59:42.242Z,100.00
2023-03-31T19:04:46.123Z,100.00
2023-03-31T19:09:57.545Z,100.00
2023-03-31T19:15:04.004Z,100.00
2023-03-31T19:20:19.803Z,100.00
2023-03-31T19:25:29.293Z,100.00
2023-03-31T19:30:40.376Z,100.00
2023-03-31T19:35:51.315Z,100.00
2023-03-31T19:41:01.333Z,100.00
2023-03-31T19:46:11.698Z,100.00
2023-03-31T19:51:17.571Z,100.00
2023-03-31T19:56:25.981Z,100.00
2023-03-31T20:01:35.866Z,100.00
2023-03-31T20:06:40.530Z,100.00
2023-03-31T20:11:45.790Z,100.00
2023-03-31T20:17:00.473Z,100.00
2023-03-31T20:22:09.281Z,100.00
2023-03-31T20:27:16.148Z,100.00
2023-03-31T20:32:22.953Z,100.00
2023-03-31T20:37:27.696Z,100.00
2023-03-31T20:42:36.454Z,100.00
2023-03-31T20:47:47.793Z,100.00
2023-03-31T20:52:59.542Z,100.00
2023-03-31T20:58:06.450Z,100.00
2023-03-31T21:03:13.840Z,100.00
2023-03-31T21:08:27.151Z,100.00
2023-03-31T21:13:40.687Z,100.00
2023-03-31T21:18:52.198Z,100.00
2023-03-31T21:24:02.474Z,100.00
2023-03-31T21:29:10.712Z,100.00
2023-03-31T21:34:27.684Z,100.00
2023-03-31T21:39:35.965Z,100.00
2023-03-31T21:44:48.903Z,100.00
2023-03-31T21:49:54.988Z,100.00
2023-03-31T21:55:01.979Z,100.00
2023-03-31T22:00:12.659Z,100.00
2023-03-31T22:05:19.964Z,100.00
2023-03-31T22:10:24.648Z,100.00
2023-03-31T22:15:30.916Z,100.00
2023-03-31T22:20:39.349Z,100.00
2023-03-31T22:25:49.696Z,100.00
2023-03-31T22:30:55.143Z,100.00
2023-03-31T22:36:07.499Z,100.00
2023-03-31T22:41:14.758Z,100.00
2023-03-31T22:46:19.662Z,100.00
2023-03-31T22:51:30.136Z,100.00
2023-03-31T22:56:43.978Z,100.00
2023-03-31T23:01:53.471Z,100.00
2023-03-31T23:06:59.703Z,100.00
2023-03-31T23:12:05.596Z,100.00
2023-03-31T23:17:12.134Z,100.00
2023-03-31T23:22:18.957Z,100.00
2023-03-31T23:27:28.396Z,100.00
2023-03-31T23:32:32.520Z,100.00
2023-03-31T23:37:38.540Z,100.00
2023-03-31T23:42:42.971Z,100.00
2023-03-31T23:47:50.065Z,100.00
2023-03-31T23:52:59.748Z,100.00
2023-03-31T23:58:04.318Z,100.00
